Time;durP1;ratioP1;P1;durP2;ratioP2;P2;SDS_P1;SDS_P2;PMS_P1;PMS_P2;Temp;Humidity;BMP_temperature;BMP_pressure;BME280_temperature;BME280_humidity;BME280_pressure;Samples;Min_cycle;Max_cycle;Signal;HPM_P1;HPM_P2
2022/11/15 00:00:49;;;;;;;37.20;26.90;;;;;;;;;;5067329;28;20511;-81
2022/11/15 00:03:16;;;;;;;38.40;27.23;;;;;;;;;;5071839;28;20411;-81
2022/11/15 00:05:44;;;;;;;38.73;27.50;;;;;;;;;;5069557;28;20781;-81
2022/11/15 00:08:10;;;;;;;37.00;26.00;;;;;;;;;;5072003;28;20926;-81
2022/11/15 00:10:37;;;;;;;38.20;27.17;;;;;;;;;;5069434;28;20439;-81
2022/11/15 00:13:05;;;;;;;39.00;26.23;;;;;;;;;;5069078;28;20440;-81
2022/11/15 00:15:34;;;;;;;40.20;27.38;;;;;;;;;;5061353;28;20942;-81
2022/11/15 00:18:03;;;;;;;34.85;25.45;;;;;;;;;;5067640;28;20439;-82
2022/11/15 00:20:30;;;;;;;38.75;26.13;;;;;;;;;;5065240;28;20433;-81
2022/11/15 00:22:56;;;;;;;38.78;26.75;;;;;;;;;;5076276;28;20845;-81
2022/11/15 00:25:22;;;;;;;37.53;26.65;;;;;;;;;;5065433;28;20946;-81
2022/11/15 00:27:49;;;;;;;40.05;26.88;;;;;;;;;;5068820;28;20432;-81
2022/11/15 00:30:15;;;;;;;37.20;25.63;;;;;;;;;;5063712;28;20431;-81
2022/11/15 00:32:42;;;;;;;41.95;27.33;;;;;;;;;;5068935;28;20409;-81
2022/11/15 00:35:10;;;;;;;37.45;26.15;;;;;;;;;;5071361;28;20418;-81
2022/11/15 00:37:36;;;;;;;37.20;27.02;;;;;;;;;;5066147;28;20437;-81
2022/11/15 00:40:03;;;;;;;38.00;26.90;;;;;;;;;;5066300;28;20778;-81
2022/11/15 00:42:30;;;;;;;36.75;26.50;;;;;;;;;;5066698;28;20433;-81
2022/11/15 00:44:57;;;;;;;37.90;26.20;;;;;;;;;;5069119;28;20426;-81
2022/11/15 00:47:23;;;;;;;36.05;26.13;;;;;;;;;;5063774;28;20429;-81
2022/11/15 00:49:49;;;;;;;34.80;25.45;;;;;;;;;;5064950;28;20427;-81
2022/11/15 00:52:18;;;;;;;35.67;26.35;;;;;;;;;;5063970;28;20452;-81
2022/11/15 00:54:45;;;;;;;35.42;24.60;;;;;;;;;;5064456;28;20429;-82
2022/11/15 00:57:13;;;;;;;36.42;24.60;;;;;;;;;;5069061;28;20503;-81
2022/11/15 00:59:40;;;;;;;36.95;24.95;;;;;;;;;;5065946;28;20417;-81
2022/11/15 01:02:07;;;;;;;34.60;24.27;;;;;;;;;;5068543;28;20423;-81
2022/11/15 01:04:34;;;;;;;34.75;23.90;;;;;;;;;;5066890;28;20425;-81
2022/11/15 01:07:01;;;;;;;33.10;23.05;;;;;;;;;;5067291;28;20425;-81
2022/11/15 01:09:29;;;;;;;32.08;23.40;;;;;;;;;;5063866;28;20428;-81
2022/11/15 01:11:57;;;;;;;35.33;23.48;;;;;;;;;;5065599;28;20458;-81
2022/11/15 01:14:24;;;;;;;33.13;23.90;;;;;;;;;;5063820;28;20427;-81
2022/11/15 01:16:51;;;;;;;33.50;23.30;;;;;;;;;;5065892;28;20960;-81
2022/11/15 01:19:19;;;;;;;34.97;22.90;;;;;;;;;;5066948;28;20425;-81
2022/11/15 01:21:46;;;;;;;34.70;24.35;;;;;;;;;;5065316;28;20898;-82
2022/11/15 01:24:13;;;;;;;31.58;22.60;;;;;;;;;;5068634;28;20430;-81
2022/11/15 01:26:41;;;;;;;31.65;23.33;;;;;;;;;;5068444;28;20437;-81
2022/11/15 01:29:07;;;;;;;32.97;23.33;;;;;;;;;;5064772;28;20496;-82
2022/11/15 01:31:34;;;;;;;31.08;22.10;;;;;;;;;;5066586;28;20431;-81
2022/11/15 01:34:01;;;;;;;29.88;23.42;;;;;;;;;;5066103;28;20941;-81
2022/11/15 01:36:32;;;;;;;32.10;22.40;;;;;;;;;;5070434;28;20436;-81
2022/11/15 01:38:59;;;;;;;30.90;22.67;;;;;;;;;;5067135;28;20476;-81
2022/11/15 01:41:26;;;;;;;30.02;21.45;;;;;;;;;;5065866;28;20432;-81
2022/11/15 01:43:55;;;;;;;30.40;22.20;;;;;;;;;;5074374;28;20412;-81
2022/11/15 01:46:32;;;;;;;34.65;23.55;;;;;;;;;;5067204;28;20427;-81
2022/11/15 01:49:01;;;;;;;30.30;22.40;;;;;;;;;;5069114;28;20419;-81
2022/11/15 01:51:29;;;;;;;33.97;23.02;;;;;;;;;;5066288;28;20428;-81
2022/11/15 01:53:56;;;;;;;35.28;23.30;;;;;;;;;;5073167;28;20413;-81
2022/11/15 01:56:24;;;;;;;30.65;22.15;;;;;;;;;;5074870;28;20427;-81
2022/11/15 01:58:51;;;;;;;32.15;22.35;;;;;;;;;;5076163;28;20909;-81
2022/11/15 02:01:19;;;;;;;29.10;22.15;;;;;;;;;;5091039;28;20421;-81
2022/11/15 02:03:50;;;;;;;30.95;22.40;;;;;;;;;;5084111;28;20397;-81
2022/11/15 02:06:16;;;;;;;30.77;22.47;;;;;;;;;;5068462;28;20443;-81
2022/11/15 02:08:43;;;;;;;34.70;22.73;;;;;;;;;;5066611;28;20424;-81
2022/11/15 02:11:12;;;;;;;31.40;22.63;;;;;;;;;;5070547;28;20934;-81
2022/11/15 02:13:39;;;;;;;34.00;23.25;;;;;;;;;;5063405;28;20436;-81
2022/11/15 02:16:08;;;;;;;33.45;22.60;;;;;;;;;;5067652;28;20433;-81
2022/11/15 02:18:38;;;;;;;36.00;24.15;;;;;;;;;;5073816;28;20444;-81
2022/11/15 02:21:12;;;;;;;35.28;23.70;;;;;;;;;;5071672;28;20435;-81
2022/11/15 02:23:53;;;;;;;35.83;23.58;;;;;;;;;;5067103;28;20407;-81
2022/11/15 02:26:33;;;;;;;32.40;22.60;;;;;;;;;;5067132;28;20460;-81
2022/11/15 02:29:02;;;;;;;34.90;24.05;;;;;;;;;;5071001;28;20413;-81
2022/11/15 02:31:33;;;;;;;33.00;22.85;;;;;;;;;;5066600;28;20419;-81
2022/11/15 02:34:04;;;;;;;32.60;24.30;;;;;;;;;;5070717;28;20443;-81
2022/11/15 02:36:34;;;;;;;35.03;23.40;;;;;;;;;;5069067;28;20428;-82
2022/11/15 02:39:04;;;;;;;31.08;22.38;;;;;;;;;;5070496;28;20411;-81
2022/11/15 02:41:32;;;;;;;33.25;23.08;;;;;;;;;;5071645;28;20417;-81
2022/11/15 02:44:00;;;;;;;32.55;22.60;;;;;;;;;;5068711;28;20410;-81
2022/11/15 02:49:18;;;;;;;34.00;23.80;;;;;;;;;;5065417;28;20487;-81
2022/11/15 02:51:48;;;;;;;35.38;24.10;;;;;;;;;;5071453;28;20410;-81
2022/11/15 02:54:16;;;;;;;31.40;22.30;;;;;;;;;;5069183;28;20425;-81
2022/11/15 02:56:44;;;;;;;34.88;23.20;;;;;;;;;;5072975;28;20431;-81
2022/11/15 02:59:24;;;;;;;31.60;22.80;;;;;;;;;;5073858;28;20416;-81
2022/11/15 03:01:57;;;;;;;30.55;22.65;;;;;;;;;;5071708;28;20434;-81
2022/11/15 03:04:29;;;;;;;32.80;23.13;;;;;;;;;;5066383;28;20450;-81
2022/11/15 03:07:02;;;;;;;33.17;23.20;;;;;;;;;;5067929;28;20440;-81
2022/11/15 03:09:34;;;;;;;30.38;21.63;;;;;;;;;;5074195;28;20420;-81
2022/11/15 03:12:05;;;;;;;29.45;21.83;;;;;;;;;;5070422;28;20403;-81
2022/11/15 03:14:34;;;;;;;29.52;21.15;;;;;;;;;;5073148;28;20416;-81
2022/11/15 03:17:03;;;;;;;31.30;22.05;;;;;;;;;;5069935;28;20839;-81
2022/11/15 03:19:33;;;;;;;30.33;21.50;;;;;;;;;;5068494;28;20464;-81
2022/11/15 03:22:01;;;;;;;31.50;22.40;;;;;;;;;;5069928;28;20455;-81
2022/11/15 03:24:29;;;;;;;31.00;22.37;;;;;;;;;;5068528;28;20502;-81
2022/11/15 03:26:57;;;;;;;30.88;21.90;;;;;;;;;;5071387;28;20428;-81
2022/11/15 03:29:26;;;;;;;30.90;21.67;;;;;;;;;;5068888;28;20422;-81
2022/11/15 03:31:56;;;;;;;30.57;22.03;;;;;;;;;;5071021;28;20431;-81
2022/11/15 03:34:27;;;;;;;30.88;22.10;;;;;;;;;;5069416;28;20412;-81
2022/11/15 03:36:53;;;;;;;31.40;21.63;;;;;;;;;;5068336;28;20427;-81
2022/11/15 03:39:21;;;;;;;33.78;22.77;;;;;;;;;;5067677;28;20507;-81
2022/11/15 03:41:49;;;;;;;33.95;21.98;;;;;;;;;;5068763;28;20423;-81
2022/11/15 03:44:18;;;;;;;41.17;23.05;;;;;;;;;;5068015;28;20958;-81
2022/11/15 03:46:47;;;;;;;36.17;23.70;;;;;;;;;;5067696;28;20465;-81
2022/11/15 03:49:16;;;;;;;34.45;23.77;;;;;;;;;;5066939;28;20430;-81
2022/11/15 03:51:46;;;;;;;34.60;23.13;;;;;;;;;;5068530;28;20428;-82
2022/11/15 03:54:13;;;;;;;33.85;24.52;;;;;;;;;;5063915;28;20417;-81
2022/11/15 03:56:39;;;;;;;36.42;23.40;;;;;;;;;;5063831;28;20433;-81
2022/11/15 03:59:05;;;;;;;36.95;25.08;;;;;;;;;;5060941;28;20510;-81
2022/11/15 04:01:33;;;;;;;37.08;24.48;;;;;;;;;;5066891;28;20443;-82
2022/11/15 04:04:00;;;;;;;38.08;23.08;;;;;;;;;;5065567;28;20417;-81
2022/11/15 04:06:26;;;;;;;34.03;23.30;;;;;;;;;;5064919;28;20425;-81
2022/11/15 04:08:57;;;;;;;38.73;23.27;;;;;;;;;;5065505;28;20426;-81
2022/11/15 04:11:23;;;;;;;38.03;24.58;;;;;;;;;;5066054;28;20415;-81
2022/11/15 04:13:50;;;;;;;34.28;23.05;;;;;;;;;;5068498;28;20436;-81
2022/11/15 04:16:17;;;;;;;34.58;23.48;;;;;;;;;;5069443;28;20420;-81
2022/11/15 04:18:43;;;;;;;37.28;24.08;;;;;;;;;;5066680;28;20488;-81
2022/11/15 04:24:14;;;;;;;38.90;23.40;;;;;;;;;;5068246;28;20420;-81
2022/11/15 04:26:41;;;;;;;39.53;24.80;;;;;;;;;;5068579;28;20420;-81
2022/11/15 04:31:51;;;;;;;35.70;23.55;;;;;;;;;;5073212;28;20394;-81
2022/11/15 04:34:18;;;;;;;38.30;23.90;;;;;;;;;;5069819;28;21012;-81
2022/11/15 04:39:35;;;;;;;34.23;22.93;;;;;;;;;;5056749;28;20519;-81
2022/11/15 04:42:01;;;;;;;41.80;24.50;;;;;;;;;;5070395;28;20502;-81
2022/11/15 04:44:28;;;;;;;37.97;23.83;;;;;;;;;;5065379;28;20420;-81
2022/11/15 04:46:55;;;;;;;39.92;23.77;;;;;;;;;;5066880;28;20431;-81
2022/11/15 04:49:21;;;;;;;38.80;24.13;;;;;;;;;;5062377;28;20937;-81
2022/11/15 04:51:48;;;;;;;41.88;24.77;;;;;;;;;;5067830;28;20419;-81
2022/11/15 04:54:14;;;;;;;34.10;24.23;;;;;;;;;;5067200;28;20433;-81
2022/11/15 04:56:42;;;;;;;38.28;24.15;;;;;;;;;;5065439;28;20441;-81
2022/11/15 04:59:09;;;;;;;38.97;24.50;;;;;;;;;;5068669;28;20420;-81
2022/11/15 05:01:35;;;;;;;35.15;22.48;;;;;;;;;;5069890;28;20430;-81
2022/11/15 05:06:46;;;;;;;31.30;21.60;;;;;;;;;;5064881;28;20467;-81
2022/11/15 05:09:13;;;;;;;35.28;22.17;;;;;;;;;;5069234;28;20421;-81
2022/11/15 05:11:41;;;;;;;31.20;22.05;;;;;;;;;;5070379;28;20421;-81
2022/11/15 05:14:09;;;;;;;33.33;22.23;;;;;;;;;;5063358;28;21148;-81
2022/11/15 05:16:37;;;;;;;32.25;21.38;;;;;;;;;;5070976;28;20796;-81
2022/11/15 05:19:04;;;;;;;28.23;19.23;;;;;;;;;;5070360;28;20523;-81
2022/11/15 05:21:31;;;;;;;35.42;21.25;;;;;;;;;;5070369;28;20428;-81
2022/11/15 05:23:58;;;;;;;31.25;19.15;;;;;;;;;;5071792;28;20419;-81
2022/11/15 05:26:24;;;;;;;30.33;20.37;;;;;;;;;;5069778;28;20436;-81
2022/11/15 05:28:55;;;;;;;28.73;18.98;;;;;;;;;;5069626;28;20429;-81
2022/11/15 05:31:21;;;;;;;23.30;18.08;;;;;;;;;;5071795;28;20435;-81
2022/11/15 05:33:49;;;;;;;28.23;18.97;;;;;;;;;;5071650;28;20444;-81
2022/11/15 05:36:18;;;;;;;23.47;17.73;;;;;;;;;;5068961;28;20574;-81
2022/11/15 05:38:45;;;;;;;24.60;18.08;;;;;;;;;;5067571;28;20425;-82
2022/11/15 05:41:12;;;;;;;25.95;17.70;;;;;;;;;;5072513;28;20411;-81
2022/11/15 05:43:41;;;;;;;22.65;16.80;;;;;;;;;;5069777;28;20410;-81
2022/11/15 05:46:09;;;;;;;24.40;17.80;;;;;;;;;;5071413;28;20441;-81
2022/11/15 05:48:37;;;;;;;21.97;16.13;;;;;;;;;;5071405;28;20522;-81
2022/11/15 05:51:04;;;;;;;26.10;16.45;;;;;;;;;;5068771;28;20461;-81
2022/11/15 05:53:31;;;;;;;28.70;17.10;;;;;;;;;;5068622;28;20772;-81
2022/11/15 05:55:57;;;;;;;20.00;16.10;;;;;;;;;;5068858;28;20887;-81
2022/11/15 05:58:24;;;;;;;26.97;17.33;;;;;;;;;;5072551;28;20442;-81
2022/11/15 06:00:52;;;;;;;24.60;16.80;;;;;;;;;;5070722;28;20432;-81
2022/11/15 06:03:22;;;;;;;22.73;15.23;;;;;;;;;;5063838;28;20429;-80
2022/11/15 06:05:50;;;;;;;23.63;16.73;;;;;;;;;;5070008;28;20427;-81
2022/11/15 06:08:16;;;;;;;23.17;16.58;;;;;;;;;;5071279;28;20508;-80
2022/11/15 06:10:43;;;;;;;21.17;15.45;;;;;;;;;;5066150;28;20429;-80
2022/11/15 06:13:09;;;;;;;20.40;16.47;;;;;;;;;;5064491;28;20918;-80
2022/11/15 06:15:35;;;;;;;25.35;18.10;;;;;;;;;;5058603;28;20429;-79
2022/11/15 06:18:02;;;;;;;21.60;15.90;;;;;;;;;;5067205;28;20782;-80
2022/11/15 06:20:30;;;;;;;21.80;15.70;;;;;;;;;;5061971;28;20957;-79
2022/11/15 06:22:59;;;;;;;21.58;16.90;;;;;;;;;;5064644;28;20423;-80
2022/11/15 06:25:26;;;;;;;22.97;16.33;;;;;;;;;;5061312;28;20931;-80
2022/11/15 06:27:53;;;;;;;21.75;16.05;;;;;;;;;;5058446;28;20784;-80
2022/11/15 06:30:20;;;;;;;22.58;16.52;;;;;;;;;;5061078;28;20795;-80
2022/11/15 06:32:47;;;;;;;23.15;17.25;;;;;;;;;;5060487;28;20799;-80
2022/11/15 06:35:14;;;;;;;23.13;15.63;;;;;;;;;;5062373;28;20925;-81
2022/11/15 06:37:42;;;;;;;20.92;16.20;;;;;;;;;;5065159;28;20423;-81
2022/11/15 06:40:10;;;;;;;25.80;16.75;;;;;;;;;;5065859;28;20500;-82
2022/11/15 06:42:38;;;;;;;22.65;18.65;;;;;;;;;;5069972;28;20504;-81
2022/11/15 06:45:05;;;;;;;22.45;17.13;;;;;;;;;;5067549;28;20415;-81
2022/11/15 06:47:31;;;;;;;22.77;17.02;;;;;;;;;;5073385;28;20420;-81
2022/11/15 06:49:59;;;;;;;21.05;16.55;;;;;;;;;;5060104;28;20424;-81
2022/11/15 06:52:25;;;;;;;21.08;16.30;;;;;;;;;;5065254;28;20437;-82
2022/11/15 06:54:53;;;;;;;24.77;16.23;;;;;;;;;;5064949;28;20426;-80
2022/11/15 06:57:19;;;;;;;20.67;16.40;;;;;;;;;;5067954;28;20430;-81
2022/11/15 06:59:46;;;;;;;23.95;17.30;;;;;;;;;;5062137;28;20430;-81
2022/11/15 07:02:13;;;;;;;23.80;16.20;;;;;;;;;;5066384;28;20429;-81
2022/11/15 07:04:40;;;;;;;21.80;16.48;;;;;;;;;;5065931;28;20419;-80
2022/11/15 07:07:07;;;;;;;24.55;16.60;;;;;;;;;;5064628;28;20425;-81
2022/11/15 07:09:34;;;;;;;23.60;16.52;;;;;;;;;;5063379;28;20417;-82
2022/11/15 07:12:04;;;;;;;23.20;17.10;;;;;;;;;;5063436;28;20935;-80
2022/11/15 07:14:30;;;;;;;21.25;16.77;;;;;;;;;;5067330;28;20413;-81
2022/11/15 07:16:57;;;;;;;23.52;16.27;;;;;;;;;;5068639;28;20425;-80
2022/11/15 07:19:24;;;;;;;24.27;16.75;;;;;;;;;;5064772;28;20882;-81
2022/11/15 07:21:50;;;;;;;25.33;17.38;;;;;;;;;;5064956;28;20428;-81
2022/11/15 07:24:16;;;;;;;22.00;16.35;;;;;;;;;;5062061;28;20942;-81
2022/11/15 07:26:43;;;;;;;24.48;17.48;;;;;;;;;;5064369;28;20422;-81
2022/11/15 07:29:10;;;;;;;21.17;16.48;;;;;;;;;;5067443;28;20423;-81
2022/11/15 07:31:37;;;;;;;19.70;15.80;;;;;;;;;;5062876;28;20440;-80
2022/11/15 07:34:04;;;;;;;25.77;17.35;;;;;;;;;;5064054;28;20446;-81
2022/11/15 07:36:30;;;;;;;24.45;17.85;;;;;;;;;;5066555;28;20455;-81
2022/11/15 07:38:57;;;;;;;22.35;17.25;;;;;;;;;;5067508;28;20412;-81
2022/11/15 07:41:23;;;;;;;21.33;16.95;;;;;;;;;;5063388;28;20429;-81
2022/11/15 07:43:52;;;;;;;20.95;17.17;;;;;;;;;;5065186;28;20918;-81
2022/11/15 07:46:20;;;;;;;23.92;16.80;;;;;;;;;;5062090;28;20432;-80
2022/11/15 07:48:46;;;;;;;21.50;16.70;;;;;;;;;;5066085;28;20416;-81
2022/11/15 07:51:14;;;;;;;20.85;17.58;;;;;;;;;;5066575;28;20440;-81
2022/11/15 07:53:40;;;;;;;21.05;16.33;;;;;;;;;;5064382;28;20421;-81
2022/11/15 07:56:07;;;;;;;21.30;17.80;;;;;;;;;;5065747;28;20441;-81
2022/11/15 07:58:36;;;;;;;19.30;16.10;;;;;;;;;;5064732;28;20401;-81
2022/11/15 08:01:04;;;;;;;24.50;17.52;;;;;;;;;;5063036;28;20431;-82
2022/11/15 08:03:32;;;;;;;22.88;16.77;;;;;;;;;;5061250;28;20424;-83
2022/11/15 08:06:00;;;;;;;22.52;17.00;;;;;;;;;;5068011;28;20431;-81
2022/11/15 08:08:27;;;;;;;20.90;17.50;;;;;;;;;;5064673;28;20923;-81
2022/11/15 08:10:53;;;;;;;20.48;16.13;;;;;;;;;;5060549;28;20423;-81
2022/11/15 08:13:20;;;;;;;22.33;16.95;;;;;;;;;;5065097;28;20933;-82
2022/11/15 08:15:47;;;;;;;19.95;16.20;;;;;;;;;;5066622;28;20429;-81
2022/11/15 08:18:15;;;;;;;19.85;17.20;;;;;;;;;;5057198;28;20488;-81
2022/11/15 08:20:43;;;;;;;23.42;16.35;;;;;;;;;;5062737;28;20427;-81
2022/11/15 08:23:11;;;;;;;23.50;17.50;;;;;;;;;;5068134;28;20936;-81
2022/11/15 08:25:39;;;;;;;22.75;17.05;;;;;;;;;;5062648;28;20799;-82
2022/11/15 08:28:06;;;;;;;21.52;16.58;;;;;;;;;;5064027;28;20425;-81
2022/11/15 08:30:36;;;;;;;21.65;16.63;;;;;;;;;;5059240;28;20450;-81
2022/11/15 08:33:02;;;;;;;20.50;15.90;;;;;;;;;;5067345;28;20431;-81
2022/11/15 08:35:31;;;;;;;20.58;16.63;;;;;;;;;;5068371;28;20415;-81
2022/11/15 08:38:00;;;;;;;17.35;15.23;;;;;;;;;;5068157;28;20938;-81
2022/11/15 08:40:27;;;;;;;25.85;17.08;;;;;;;;;;5065500;28;20429;-81
2022/11/15 08:42:54;;;;;;;20.05;16.10;;;;;;;;;;5068643;28;20922;-81
2022/11/15 08:45:20;;;;;;;20.30;16.70;;;;;;;;;;5065720;28;20419;-81
2022/11/15 08:47:47;;;;;;;21.95;15.65;;;;;;;;;;5070334;28;20404;-81
2022/11/15 08:50:15;;;;;;;21.42;17.00;;;;;;;;;;5063262;28;20950;-81
2022/11/15 08:52:42;;;;;;;21.27;16.38;;;;;;;;;;5068041;28;20421;-81
2022/11/15 08:55:10;;;;;;;20.17;15.77;;;;;;;;;;5065492;28;20430;-81
2022/11/15 08:57:37;;;;;;;22.45;15.82;;;;;;;;;;5068019;28;20429;-81
2022/11/15 09:00:05;;;;;;;18.73;15.77;;;;;;;;;;5065422;28;20909;-81
2022/11/15 09:02:32;;;;;;;19.80;16.30;;;;;;;;;;5068668;28;20421;-81
2022/11/15 09:04:59;;;;;;;19.48;16.27;;;;;;;;;;5066873;28;20419;-81
2022/11/15 09:07:25;;;;;;;20.13;15.60;;;;;;;;;;5066664;28;20421;-81
2022/11/15 09:09:53;;;;;;;22.13;16.67;;;;;;;;;;5066255;28;20423;-81
2022/11/15 09:12:21;;;;;;;18.58;15.93;;;;;;;;;;5063429;28;20436;-81
2022/11/15 09:14:47;;;;;;;21.95;16.45;;;;;;;;;;5066832;28;20421;-81
2022/11/15 09:17:14;;;;;;;18.38;15.40;;;;;;;;;;5070766;28;20426;-81
2022/11/15 09:19:40;;;;;;;21.17;15.38;;;;;;;;;;5065692;28;20783;-81
2022/11/15 09:22:07;;;;;;;19.15;15.25;;;;;;;;;;5069348;28;20409;-81
2022/11/15 09:24:34;;;;;;;19.65;15.52;;;;;;;;;;5070269;28;20540;-81
2022/11/15 09:27:01;;;;;;;19.45;15.90;;;;;;;;;;5067724;28;20495;-81
2022/11/15 09:29:29;;;;;;;17.75;15.80;;;;;;;;;;5067490;28;20422;-81
2022/11/15 09:31:55;;;;;;;19.90;16.40;;;;;;;;;;5066718;28;20510;-81
2022/11/15 09:34:22;;;;;;;21.52;17.40;;;;;;;;;;5067070;28;20423;-81
2022/11/15 09:36:48;;;;;;;19.38;15.88;;;;;;;;;;5063766;28;20429;-81
2022/11/15 09:39:14;;;;;;;18.60;16.33;;;;;;;;;;5066636;28;20421;-81
2022/11/15 09:41:49;;;;;;;21.63;15.73;;;;;;;;;;5066444;28;20419;-81
2022/11/15 09:44:36;;;;;;;20.40;15.30;;;;;;;;;;5062190;28;20425;-81
2022/11/15 09:47:06;;;;;;;19.15;15.45;;;;;;;;;;5065564;28;20416;-81
2022/11/15 09:49:33;;;;;;;19.58;15.20;;;;;;;;;;5066262;28;20428;-81
2022/11/15 09:52:00;;;;;;;20.20;14.73;;;;;;;;;;5067371;28;20412;-81
2022/11/15 09:54:28;;;;;;;19.42;14.27;;;;;;;;;;5069637;28;20502;-81
2022/11/15 09:56:56;;;;;;;16.85;14.50;;;;;;;;;;5065977;28;20520;-81
2022/11/15 09:59:35;;;;;;;20.33;15.60;;;;;;;;;;5065389;28;20410;-82
2022/11/15 10:02:06;;;;;;;17.15;14.70;;;;;;;;;;5066576;28;20437;-81
2022/11/15 10:04:33;;;;;;;15.05;12.95;;;;;;;;;;5067850;28;20424;-81
2022/11/15 10:07:03;;;;;;;17.50;13.02;;;;;;;;;;5067792;28;20421;-81
2022/11/15 10:09:32;;;;;;;22.60;14.15;;;;;;;;;;5069975;28;20415;-81
2022/11/15 10:11:59;;;;;;;18.40;13.57;;;;;;;;;;5067510;28;20436;-80
2022/11/15 10:14:30;;;;;;;18.38;13.75;;;;;;;;;;5071587;28;20412;-80
2022/11/15 10:17:04;;;;;;;16.08;13.40;;;;;;;;;;5066181;28;20518;-80
2022/11/15 10:19:35;;;;;;;14.93;12.82;;;;;;;;;;5070764;28;20419;-80
2022/11/15 10:22:09;;;;;;;14.93;12.32;;;;;;;;;;5070034;28;20477;-80
2022/11/15 10:24:37;;;;;;;13.20;11.80;;;;;;;;;;5068859;28;20418;-80
2022/11/15 10:27:08;;;;;;;16.10;12.73;;;;;;;;;;5066888;28;20431;-81
2022/11/15 10:29:34;;;;;;;15.73;12.23;;;;;;;;;;5066307;28;20504;-82
2022/11/15 10:32:02;;;;;;;15.48;12.35;;;;;;;;;;5071068;28;20438;-79
2022/11/15 10:34:28;;;;;;;13.75;12.15;;;;;;;;;;5068897;28;20424;-79
2022/11/15 10:36:57;;;;;;;15.68;12.02;;;;;;;;;;5067037;28;20535;-79
2022/11/15 10:39:25;;;;;;;16.38;11.88;;;;;;;;;;5063950;28;20446;-82
2022/11/15 10:41:52;;;;;;;17.23;12.60;;;;;;;;;;5067774;28;20411;-80
2022/11/15 10:44:23;;;;;;;16.70;12.20;;;;;;;;;;5066660;28;20429;-80
2022/11/15 10:47:05;;;;;;;15.13;12.13;;;;;;;;;;5060873;28;20909;-80
2022/11/15 10:49:32;;;;;;;15.93;12.27;;;;;;;;;;5069837;28;20490;-80
2022/11/15 10:52:01;;;;;;;18.23;12.75;;;;;;;;;;5071609;28;20445;-80
2022/11/15 10:54:31;;;;;;;14.75;11.85;;;;;;;;;;5068504;28;20421;-80
2022/11/15 10:56:59;;;;;;;14.65;11.23;;;;;;;;;;5073028;28;20427;-81
2022/11/15 10:59:28;;;;;;;12.93;11.50;;;;;;;;;;5065168;28;20417;-80
2022/11/15 11:01:54;;;;;;;13.40;10.93;;;;;;;;;;5069323;28;20759;-80
2022/11/15 11:04:22;;;;;;;15.60;11.25;;;;;;;;;;5070899;28;20497;-80
2022/11/15 11:06:49;;;;;;;14.80;11.65;;;;;;;;;;5070472;28;20880;-80
2022/11/15 11:09:24;;;;;;;13.02;11.15;;;;;;;;;;5065233;28;20412;-80
2022/11/15 11:11:52;;;;;;;13.35;11.35;;;;;;;;;;5070464;28;20419;-80
2022/11/15 11:14:21;;;;;;;12.18;10.68;;;;;;;;;;5065875;28;20428;-80
2022/11/15 11:16:50;;;;;;;13.68;10.77;;;;;;;;;;5069637;28;20475;-80
2022/11/15 11:19:21;;;;;;;14.50;11.30;;;;;;;;;;5069621;28;20419;-80
2022/11/15 11:21:52;;;;;;;13.57;10.90;;;;;;;;;;5071502;28;20464;-80
2022/11/15 11:24:25;;;;;;;12.63;10.05;;;;;;;;;;5070073;28;20416;-80
2022/11/15 11:27:00;;;;;;;12.18;10.27;;;;;;;;;;5071372;28;20423;-80
2022/11/15 11:29:33;;;;;;;12.25;10.10;;;;;;;;;;5067888;28;20409;-80
2022/11/15 11:32:04;;;;;;;13.20;10.30;;;;;;;;;;5072157;28;20433;-80
2022/11/15 11:34:52;;;;;;;11.65;9.75;;;;;;;;;;5066487;28;20420;-82
2022/11/15 11:37:24;;;;;;;11.35;8.82;;;;;;;;;;5065667;28;20428;-85
2022/11/15 11:39:57;;;;;;;10.43;9.32;;;;;;;;;;5069604;28;20427;-80
2022/11/15 11:42:32;;;;;;;12.63;9.23;;;;;;;;;;5067858;28;20416;-79
2022/11/15 11:45:03;;;;;;;10.82;8.50;;;;;;;;;;5066417;28;20425;-80
2022/11/15 11:47:33;;;;;;;10.43;9.00;;;;;;;;;;5067271;28;20412;-80
2022/11/15 11:50:01;;;;;;;10.85;8.32;;;;;;;;;;5063505;28;20412;-80
2022/11/15 11:52:31;;;;;;;11.20;8.13;;;;;;;;;;5071440;28;20411;-80
2022/11/15 11:55:01;;;;;;;9.55;7.20;;;;;;;;;;5067160;28;20487;-80
2022/11/15 11:57:34;;;;;;;9.25;7.80;;;;;;;;;;5070536;28;20425;-80
2022/11/15 12:00:06;;;;;;;11.80;7.88;;;;;;;;;;5069896;28;20421;-79
2022/11/15 12:02:35;;;;;;;7.57;6.85;;;;;;;;;;5066532;28;20886;-82
2022/11/15 12:05:05;;;;;;;8.85;7.95;;;;;;;;;;5065762;28;20424;-80
2022/11/15 12:07:34;;;;;;;8.40;7.27;;;;;;;;;;5065262;28;20880;-81
2022/11/15 12:10:03;;;;;;;8.13;6.80;;;;;;;;;;5069000;28;20417;-81
2022/11/15 12:12:37;;;;;;;8.57;7.22;;;;;;;;;;5064129;28;20439;-82
2022/11/15 12:15:05;;;;;;;8.40;6.80;;;;;;;;;;5067066;28;20411;-82
2022/11/15 12:17:33;;;;;;;9.30;6.90;;;;;;;;;;5065271;28;20429;-82
2022/11/15 12:20:00;;;;;;;8.32;6.90;;;;;;;;;;5066393;28;20415;-81
2022/11/15 12:22:33;;;;;;;8.32;7.20;;;;;;;;;;5070716;28;20900;-82
2022/11/15 12:25:02;;;;;;;8.20;7.00;;;;;;;;;;5068232;28;20416;-82
2022/11/15 12:27:34;;;;;;;7.22;6.45;;;;;;;;;;5064634;28;20490;-80
2022/11/15 12:30:03;;;;;;;7.28;6.55;;;;;;;;;;5064844;28;20424;-80
2022/11/15 12:32:32;;;;;;;8.63;6.93;;;;;;;;;;5062654;28;20428;-80
2022/11/15 12:34:59;;;;;;;8.70;6.50;;;;;;;;;;5066752;28;20437;-82
2022/11/15 12:37:54;;;;;;;6.88;6.13;;;;;;;;;;5066213;28;20429;-82
2022/11/15 12:40:39;;;;;;;7.07;6.25;;;;;;;;;;5065852;28;20420;-82
2022/11/15 12:43:20;;;;;;;7.85;6.03;;;;;;;;;;5070026;28;20477;-82
2022/11/15 12:45:48;;;;;;;6.60;5.90;;;;;;;;;;5067650;28;20889;-82
2022/11/15 12:48:33;;;;;;;6.40;5.70;;;;;;;;;;5067493;28;20453;-82
2022/11/15 12:51:00;;;;;;;5.63;5.13;;;;;;;;;;5068462;28;20431;-82
2022/11/15 12:53:29;;;;;;;7.00;5.20;;;;;;;;;;5066563;28;20455;-82
2022/11/15 12:56:14;;;;;;;5.20;4.60;;;;;;;;;;5067438;28;20571;-81
2022/11/15 12:58:43;;;;;;;6.28;5.00;;;;;;;;;;5066354;28;20512;-81
2022/11/15 13:01:22;;;;;;;7.55;5.00;;;;;;;;;;5073446;28;20416;-80
2022/11/15 13:04:03;;;;;;;6.18;4.50;;;;;;;;;;5068884;28;20416;-80
2022/11/15 13:06:40;;;;;;;4.70;4.30;;;;;;;;;;5064350;28;20428;-80
2022/11/15 13:09:22;;;;;;;5.15;4.00;;;;;;;;;;5066969;28;20415;-80
2022/11/15 13:11:51;;;;;;;4.97;4.47;;;;;;;;;;5062904;28;20425;-80
2022/11/15 13:14:39;;;;;;;5.30;4.30;;;;;;;;;;5066656;28;20413;-80
2022/11/15 13:17:13;;;;;;;5.30;4.50;;;;;;;;;;5067501;28;20425;-80
2022/11/15 13:19:42;;;;;;;7.20;4.40;;;;;;;;;;5058690;28;20435;-80
2022/11/15 13:25:18;;;;;;;5.70;4.18;;;;;;;;;;5061384;28;20413;-80
2022/11/15 13:27:45;;;;;;;4.20;3.80;;;;;;;;;;5077111;28;20424;-80
2022/11/15 13:30:14;;;;;;;5.25;3.90;;;;;;;;;;5084804;28;20414;-80
2022/11/15 13:32:43;;;;;;;4.35;3.50;;;;;;;;;;5086876;28;20420;-83
2022/11/15 13:35:10;;;;;;;4.00;3.60;;;;;;;;;;5065307;28;20427;-80
2022/11/15 13:37:38;;;;;;;4.43;3.70;;;;;;;;;;5067131;28;20432;-80
2022/11/15 13:40:16;;;;;;;3.45;2.97;;;;;;;;;;5071773;28;20419;-80
2022/11/15 13:42:43;;;;;;;3.60;3.30;;;;;;;;;;5070130;28;20427;-80
2022/11/15 13:45:13;;;;;;;4.55;3.20;;;;;;;;;;5069171;28;20946;-80
2022/11/15 13:47:40;;;;;;;4.13;3.33;;;;;;;;;;5071216;28;20409;-80
2022/11/15 13:50:11;;;;;;;5.40;3.30;;;;;;;;;;5070501;28;20422;-80
2022/11/15 13:52:39;;;;;;;3.80;2.90;;;;;;;;;;5070773;28;20422;-81
2022/11/15 13:55:10;;;;;;;4.77;3.10;;;;;;;;;;5068855;28;20418;-82
2022/11/15 13:57:40;;;;;;;4.95;3.55;;;;;;;;;;5069076;28;20807;-82
2022/11/15 14:00:07;;;;;;;4.05;2.90;;;;;;;;;;5069267;28;20781;-82
2022/11/15 14:02:34;;;;;;;3.53;2.85;;;;;;;;;;5065718;28;20431;-82
2022/11/15 14:05:06;;;;;;;3.42;2.75;;;;;;;;;;5068060;28;20423;-81
2022/11/15 14:07:38;;;;;;;3.00;2.60;;;;;;;;;;5068168;28;20415;-82
2022/11/15 14:10:18;;;;;;;5.30;2.70;;;;;;;;;;5068571;28;20416;-82
2022/11/15 14:12:51;;;;;;;3.60;2.80;;;;;;;;;;5068065;28;20417;-82
2022/11/15 14:15:26;;;;;;;2.50;2.20;;;;;;;;;;5071283;28;20416;-82
2022/11/15 14:17:54;;;;;;;3.28;2.13;;;;;;;;;;5065962;28;20429;-82
2022/11/15 14:20:26;;;;;;;2.25;1.80;;;;;;;;;;5069749;28;20415;-82
2022/11/15 14:22:55;;;;;;;3.70;2.07;;;;;;;;;;5070136;28;20499;-80
2022/11/15 14:25:23;;;;;;;2.63;1.85;;;;;;;;;;5064612;28;20421;-80
2022/11/15 14:28:09;;;;;;;4.80;2.50;;;;;;;;;;5069668;28;21094;-80
2022/11/15 14:30:37;;;;;;;4.53;2.42;;;;;;;;;;5067626;28;20411;-81
2022/11/15 14:33:15;;;;;;;3.33;2.53;;;;;;;;;;5071349;28;20422;-82
2022/11/15 14:35:43;;;;;;;3.13;2.30;;;;;;;;;;5066396;28;20417;-81
2022/11/15 14:38:11;;;;;;;2.83;2.08;;;;;;;;;;5070802;28;20424;-82
2022/11/15 14:40:37;;;;;;;4.30;2.90;;;;;;;;;;5063424;28;20439;-82
2022/11/15 14:43:03;;;;;;;3.35;2.20;;;;;;;;;;5066296;28;20459;-80
2022/11/15 14:45:31;;;;;;;2.90;2.70;;;;;;;;;;5068992;28;20917;-81
2022/11/15 14:47:59;;;;;;;3.22;2.78;;;;;;;;;;5071167;28;20899;-82